createdAt,value
2022-10-29T00:02:27.014Z,39.55
2022-10-29T00:04:54.026Z,38.47
2022-10-29T00:07:21.100Z,37.88
2022-10-29T00:09:48.103Z,38.47
2022-10-29T00:12:15.095Z,39.00
2022-10-29T00:14:42.116Z,40.55
2022-10-29T00:17:09.097Z,39.63
2022-10-29T00:19:36.152Z,41.50
2022-10-29T00:22:03.149Z,41.85
2022-10-29T00:24:30.126Z,39.08
2022-10-29T00:26:57.128Z,40.72
2022-10-29T00:29:24.186Z,37.78
2022-10-29T00:31:51.671Z,40.20
2022-10-29T00:34:18.742Z,39.13
2022-10-29T00:36:45.793Z,38.83
2022-10-29T00:39:17.047Z,36.30
2022-10-29T00:41:44.393Z,36.70
2022-10-29T00:44:22.952Z,38.78
2022-10-29T00:47:14.251Z,36.25
2022-10-29T00:49:43.304Z,35.45
2022-10-29T00:52:11.063Z,32.65
2022-10-29T00:54:42.083Z,30.17
2022-10-29T00:57:17.972Z,31.05
2022-10-29T00:59:47.067Z,31.52
2022-10-29T01:02:14.680Z,32.55
2022-10-29T01:04:42.789Z,31.40
2022-10-29T01:07:10.996Z,33.03
2022-10-29T01:09:38.541Z,34.40
2022-10-29T01:12:05.490Z,33.80
2022-10-29T01:14:49.591Z,32.85
2022-10-29T01:17:19.266Z,32.35
2022-10-29T01:20:07.878Z,33.53
2022-10-29T01:23:12.451Z,30.15
2022-10-29T01:26:11.124Z,33.42
2022-10-29T01:29:15.204Z,29.27
2022-10-29T01:32:01.168Z,27.40
2022-10-29T01:34:55.803Z,31.10
2022-10-29T01:37:50.171Z,31.75
2022-10-29T01:40:58.172Z,29.70
2022-10-29T01:43:38.648Z,29.30
2022-10-29T01:46:23.803Z,29.80
2022-10-29T01:48:57.018Z,28.17
2022-10-29T01:51:29.615Z,28.38
2022-10-29T01:53:59.324Z,28.42
2022-10-29T01:56:26.439Z,28.83
2022-10-29T01:58:56.599Z,29.42
2022-10-29T02:01:38.697Z,29.30
2022-10-29T02:04:25.265Z,29.17
2022-10-29T02:06:58.079Z,29.50
2022-10-29T02:09:45.260Z,28.83
2022-10-29T02:12:23.272Z,27.50
2022-10-29T02:14:55.823Z,28.60
2022-10-29T02:17:23.507Z,28.92
2022-10-29T02:19:50.574Z,26.65
2022-10-29T02:22:17.573Z,29.55
2022-10-29T02:24:44.530Z,29.02
2022-10-29T02:27:11.573Z,25.92
2022-10-29T02:29:38.577Z,26.08
2022-10-29T02:32:05.964Z,25.50
2022-10-29T02:34:32.989Z,25.05
2022-10-29T02:36:59.997Z,25.90
2022-10-29T02:39:26.950Z,25.85
2022-10-29T02:41:54.680Z,25.42
2022-10-29T02:44:21.682Z,25.90
2022-10-29T02:46:48.707Z,25.75
2022-10-29T02:49:15.728Z,24.23
2022-10-29T02:51:42.722Z,24.73
2022-10-29T02:54:09.751Z,24.23
2022-10-29T02:56:36.758Z,24.05
2022-10-29T02:59:06.411Z,24.00
2022-10-29T03:01:36.283Z,24.20
2022-10-29T03:04:03.358Z,24.63
2022-10-29T03:06:30.339Z,25.08
2022-10-29T03:08:57.484Z,23.70
2022-10-29T03:11:24.513Z,23.65
2022-10-29T03:13:51.506Z,23.65
2022-10-29T03:16:18.447Z,22.65
2022-10-29T03:18:45.437Z,24.80
2022-10-29T03:21:12.416Z,23.70
2022-10-29T03:23:39.494Z,22.35
2022-10-29T03:26:06.560Z,23.33
2022-10-29T03:28:33.576Z,22.30
2022-10-29T03:31:00.620Z,21.95
2022-10-29T03:33:27.671Z,22.67
2022-10-29T03:35:59.181Z,22.42
2022-10-29T03:38:26.759Z,24.20
2022-10-29T03:40:53.940Z,24.65
2022-10-29T03:43:21.005Z,26.45
2022-10-29T03:45:55.306Z,36.78
2022-10-29T03:48:23.588Z,45.45
2022-10-29T03:51:01.563Z,32.72
2022-10-29T03:53:29.802Z,27.77
2022-10-29T03:55:57.889Z,25.50
2022-10-29T03:58:25.998Z,35.05
2022-10-29T04:00:56.487Z,37.22
2022-10-29T04:03:24.038Z,28.85
2022-10-29T04:05:51.156Z,29.52
2022-10-29T04:08:18.598Z,27.65
2022-10-29T04:10:49.988Z,26.23
2022-10-29T04:13:18.304Z,27.40
2022-10-29T04:15:45.749Z,23.23
2022-10-29T04:18:13.134Z,24.25
2022-10-29T04:21:26.657Z,23.17
2022-10-29T04:29:03.842Z,21.17
2022-10-29T04:31:30.831Z,21.83
2022-10-29T04:33:57.862Z,22.38
2022-10-29T04:36:24.939Z,21.42
2022-10-29T04:38:51.921Z,20.88
2022-10-29T04:41:19.021Z,21.50
2022-10-29T04:43:46.200Z,22.23
2022-10-29T04:46:13.381Z,23.13
2022-10-29T04:48:40.504Z,22.95
2022-10-29T04:51:07.568Z,19.95
2022-10-29T04:53:34.607Z,22.83
2022-10-29T04:56:03.592Z,25.13
2022-10-29T04:58:30.568Z,27.38
2022-10-29T05:01:05.372Z,35.70
2022-10-29T05:03:41.083Z,42.05
2022-10-29T05:06:08.317Z,45.60
2022-10-29T05:08:35.359Z,35.63
2022-10-29T05:11:03.914Z,37.72
2022-10-29T05:13:31.090Z,36.53
2022-10-29T05:15:58.388Z,35.42
2022-10-29T05:18:25.832Z,33.42
2022-10-29T05:20:54.468Z,31.90
2022-10-29T05:23:21.492Z,31.35
2022-10-29T05:25:49.408Z,27.30
2022-10-29T05:28:21.668Z,26.27
2022-10-29T05:30:50.886Z,24.77
2022-10-29T05:33:20.457Z,23.58
2022-10-29T05:35:48.039Z,24.15
2022-10-29T05:38:15.791Z,23.65
2022-10-29T05:40:45.319Z,26.90
2022-10-29T05:43:17.126Z,29.42
2022-10-29T05:45:44.486Z,27.23
2022-10-29T05:50:46.189Z,25.85
2022-10-29T05:53:14.760Z,24.70
2022-10-29T05:55:42.442Z,23.90
2022-10-29T05:58:14.186Z,26.08
2022-10-29T06:00:44.011Z,26.58
2022-10-29T06:03:20.521Z,26.50
2022-10-29T06:05:48.813Z,24.77
2022-10-29T06:08:16.075Z,23.23
2022-10-29T06:10:43.382Z,22.35
2022-10-29T06:13:19.049Z,22.58
2022-10-29T06:15:47.149Z,22.50
2022-10-29T06:18:14.631Z,22.63
2022-10-29T06:20:43.727Z,23.48
2022-10-29T06:23:11.732Z,21.80
2022-10-29T06:25:38.847Z,20.52
2022-10-29T06:28:08.292Z,24.83
2022-10-29T06:30:36.595Z,20.98
2022-10-29T06:33:04.869Z,21.25
2022-10-29T06:35:32.067Z,22.73
2022-10-29T06:37:59.745Z,20.67
2022-10-29T06:40:27.208Z,22.60
2022-10-29T06:43:05.802Z,23.73
2022-10-29T06:45:33.378Z,27.10
2022-10-29T06:48:00.843Z,26.70
2022-10-29T06:50:28.322Z,24.58
2022-10-29T06:53:00.546Z,24.98
2022-10-29T06:55:28.653Z,26.58
2022-10-29T06:58:04.083Z,23.33
2022-10-29T07:00:32.144Z,21.50
2022-10-29T07:03:00.320Z,20.70
2022-10-29T07:05:27.944Z,23.00
2022-10-29T07:07:57.061Z,22.73
2022-10-29T07:10:24.822Z,20.65
2022-10-29T07:12:52.085Z,25.15
2022-10-29T07:15:19.478Z,25.05
2022-10-29T07:18:07.054Z,21.92
2022-10-29T07:20:39.941Z,25.52
2022-10-29T07:25:36.159Z,23.27
2022-10-29T07:28:04.652Z,20.73
2022-10-29T07:30:31.816Z,19.73
2022-10-29T07:32:58.790Z,20.65
2022-10-29T07:35:25.736Z,19.27
2022-10-29T07:37:53.001Z,18.38
2022-10-29T07:40:20.207Z,19.23
2022-10-29T07:42:52.854Z,16.98
2022-10-29T07:45:20.273Z,17.75
2022-10-29T07:47:47.487Z,15.57
2022-10-29T07:50:14.998Z,17.17
2022-10-29T07:52:42.313Z,16.65
2022-10-29T07:55:09.657Z,16.23
2022-10-29T07:57:36.732Z,14.85
2022-10-29T08:00:04.217Z,15.00
2022-10-29T08:02:31.528Z,16.60
2022-10-29T08:04:58.495Z,16.65
2022-10-29T08:07:25.634Z,15.40
2022-10-29T08:09:52.643Z,16.05
2022-10-29T08:12:19.634Z,19.10
2022-10-29T08:14:46.687Z,21.05
2022-10-29T08:17:13.635Z,22.33
2022-10-29T08:19:40.624Z,32.33
2022-10-29T08:22:10.507Z,28.40
2022-10-29T08:24:42.131Z,18.10
2022-10-29T08:27:11.043Z,24.88
2022-10-29T08:29:39.772Z,51.65
2022-10-29T08:32:26.209Z,53.13
2022-10-29T08:34:56.386Z,49.10
2022-10-29T08:37:23.715Z,48.45
2022-10-29T08:39:52.957Z,44.17
2022-10-29T08:42:41.148Z,37.92
2022-10-29T08:45:35.491Z,40.70
2022-10-29T08:48:22.583Z,41.05
2022-10-29T08:51:20.501Z,42.53
2022-10-29T08:54:25.191Z,41.88
2022-10-29T08:56:58.469Z,106.85
2022-10-29T08:59:30.960Z,27.52
2022-10-29T09:02:00.508Z,23.90
2022-10-29T09:04:35.121Z,21.92
2022-10-29T09:07:19.583Z,19.75
2022-10-29T09:10:19.349Z,21.90
2022-10-29T09:12:48.788Z,21.98
2022-10-29T09:15:43.913Z,23.55
2022-10-29T09:18:33.124Z,27.23
2022-10-29T09:21:32.574Z,27.23
2022-10-29T09:24:09.684Z,23.25
2022-10-29T09:27:11.586Z,20.10
2022-10-29T09:29:59.815Z,19.50
2022-10-29T09:32:35.580Z,18.77
2022-10-29T09:35:15.125Z,20.30
2022-10-29T09:37:53.558Z,17.98
2022-10-29T09:40:21.354Z,19.70
2022-10-29T09:42:50.696Z,21.80
2022-10-29T09:45:28.913Z,19.33
2022-10-29T09:48:15.043Z,17.85
2022-10-29T09:50:50.177Z,18.92
2022-10-29T09:53:17.172Z,18.83
2022-10-29T09:55:46.601Z,21.45
2022-10-29T09:58:21.084Z,19.63
2022-10-29T10:00:48.108Z,18.88
2022-10-29T10:03:42.023Z,20.60
2022-10-29T10:06:10.938Z,19.73
2022-10-29T10:09:01.867Z,18.67
2022-10-29T10:11:42.263Z,19.75
2022-10-29T10:14:21.884Z,19.17
2022-10-29T10:16:59.311Z,18.63
2022-10-29T10:19:29.667Z,20.88
2022-10-29T10:21:58.928Z,21.10
2022-10-29T10:24:34.382Z,15.52
2022-10-29T10:27:08.053Z,19.92
2022-10-29T10:29:35.100Z,18.75
2022-10-29T10:32:04.873Z,21.02
2022-10-29T10:34:34.712Z,20.02
2022-10-29T10:37:11.871Z,18.98
2022-10-29T10:39:43.076Z,14.40
2022-10-29T10:42:31.150Z,16.85
2022-10-29T10:45:14.614Z,15.55
2022-10-29T10:47:46.261Z,16.75
2022-10-29T10:50:22.920Z,17.58
2022-10-29T10:52:51.785Z,16.77
2022-10-29T10:55:25.753Z,15.70
2022-10-29T10:58:05.411Z,14.93
2022-10-29T11:00:37.886Z,14.15
2022-10-29T11:03:20.890Z,15.35
2022-10-29T11:06:03.389Z,17.17
2022-10-29T11:08:55.260Z,17.63
2022-10-29T11:11:28.712Z,17.38
2022-10-29T11:14:02.170Z,16.80
2022-10-29T11:16:50.745Z,15.98
2022-10-29T11:19:35.876Z,13.85
2022-10-29T11:22:30.998Z,13.95
2022-10-29T11:25:19.394Z,13.88
2022-10-29T11:27:55.659Z,14.85
2022-10-29T11:30:23.109Z,15.10
2022-10-29T11:33:08.603Z,13.77
2022-10-29T11:36:17.370Z,13.38
2022-10-29T11:38:51.287Z,13.50
2022-10-29T11:41:24.131Z,14.35
2022-10-29T11:43:51.181Z,14.00
2022-10-29T11:46:44.248Z,14.38
2022-10-29T11:52:02.100Z,13.75
2022-10-29T11:54:44.682Z,12.13
2022-10-29T11:57:24.971Z,14.23
2022-10-29T11:59:57.733Z,13.70
2022-10-29T12:03:01.950Z,13.00
2022-10-29T12:05:31.826Z,13.20
2022-10-29T12:08:58.255Z,12.40
2022-10-29T12:11:50.985Z,15.57
2022-10-29T12:14:26.638Z,16.23
2022-10-29T12:17:25.524Z,15.15
2022-10-29T12:20:12.407Z,16.10
2022-10-29T12:23:15.084Z,14.75
2022-10-29T12:28:53.092Z,15.32
2022-10-29T12:31:20.041Z,15.95
2022-10-29T12:34:05.386Z,15.48
2022-10-29T12:36:40.926Z,16.92
2022-10-29T12:39:19.226Z,19.23
2022-10-29T12:41:50.353Z,17.83
2022-10-29T12:44:45.272Z,17.02
2022-10-29T12:47:21.080Z,17.33
2022-10-29T12:50:14.256Z,17.30
2022-10-29T12:52:50.106Z,18.55
2022-10-29T12:55:17.928Z,19.83
2022-10-29T12:57:45.508Z,18.85
2022-10-29T13:00:24.924Z,20.15
2022-10-29T13:02:52.990Z,20.88
2022-10-29T13:05:32.192Z,19.80
2022-10-29T13:08:02.295Z,19.95
2022-10-29T13:10:35.410Z,21.50
2022-10-29T13:13:20.065Z,20.63
2022-10-29T13:15:59.880Z,23.45
2022-10-29T13:19:05.087Z,21.33
2022-10-29T13:21:55.473Z,23.08
2022-10-29T13:24:23.017Z,22.88
2022-10-29T13:27:24.884Z,23.45
2022-10-29T13:30:17.889Z,23.02
2022-10-29T13:32:44.922Z,24.60
2022-10-29T13:35:17.592Z,23.88
2022-10-29T13:37:52.138Z,23.73
2022-10-29T13:40:31.365Z,26.50
2022-10-29T13:43:01.169Z,26.65
2022-10-29T13:45:29.272Z,26.92
2022-10-29T13:48:02.096Z,26.35
2022-10-29T13:50:29.307Z,24.58
2022-10-29T13:53:00.918Z,25.45
2022-10-29T13:55:32.413Z,24.23
2022-10-29T13:58:08.229Z,26.50
2022-10-29T14:00:37.041Z,26.25
2022-10-29T14:03:29.575Z,29.83
2022-10-29T14:06:09.275Z,27.35
2022-10-29T14:08:49.165Z,28.85
2022-10-29T14:11:26.760Z,27.90
2022-10-29T14:14:01.189Z,28.80
2022-10-29T14:16:32.910Z,29.45
2022-10-29T14:19:14.748Z,28.97
2022-10-29T14:21:41.869Z,27.98
2022-10-29T14:24:11.427Z,27.65
2022-10-29T14:26:41.043Z,27.77
2022-10-29T14:29:25.007Z,30.65
2022-10-29T14:32:15.852Z,27.63
2022-10-29T14:34:45.425Z,28.40
2022-10-29T14:37:28.644Z,29.73
2022-10-29T14:39:59.876Z,28.30
2022-10-29T14:42:40.881Z,28.05
2022-10-29T14:45:29.470Z,29.30
2022-10-29T14:47:59.166Z,30.70
2022-10-29T14:50:28.582Z,32.58
2022-10-29T14:53:03.864Z,31.00
2022-10-29T14:55:37.136Z,28.77
2022-10-29T14:58:20.947Z,34.00
2022-10-29T15:01:02.011Z,32.47
2022-10-29T15:03:33.089Z,31.60
2022-10-29T15:06:25.424Z,33.50
2022-10-29T15:09:01.339Z,35.42
2022-10-29T15:11:38.839Z,35.42
2022-10-29T15:16:59.403Z,39.38
2022-10-29T15:19:26.714Z,43.35
2022-10-29T15:21:53.744Z,44.17
2022-10-29T15:24:23.808Z,45.47
2022-10-29T15:27:02.357Z,43.47
2022-10-29T15:29:36.218Z,47.88
2022-10-29T15:32:05.611Z,46.28
2022-10-29T15:34:37.180Z,49.88
2022-10-29T15:37:19.805Z,50.75
2022-10-29T15:39:56.802Z,53.25
2022-10-29T15:42:30.172Z,51.55
2022-10-29T15:45:19.001Z,44.55
2022-10-29T15:48:09.032Z,47.40
2022-10-29T15:50:42.449Z,47.63
2022-10-29T15:53:15.356Z,52.20
2022-10-29T15:55:43.379Z,50.75
2022-10-29T15:58:20.744Z,52.88
2022-10-29T16:00:48.132Z,50.92
2022-10-29T16:03:21.398Z,52.58
2022-10-29T16:06:01.211Z,51.25
2022-10-29T16:08:28.236Z,49.55
2022-10-29T16:10:56.443Z,49.15
2022-10-29T16:13:26.032Z,51.08
2022-10-29T16:15:53.051Z,47.90
2022-10-29T16:18:20.273Z,47.40
2022-10-29T16:20:48.225Z,48.15
2022-10-29T16:23:15.265Z,46.40
2022-10-29T16:25:42.604Z,47.33
2022-10-29T16:28:10.192Z,54.38
2022-10-29T16:33:11.724Z,48.95
2022-10-29T16:35:38.790Z,53.60
2022-10-29T16:38:06.223Z,52.90
2022-10-29T16:40:33.556Z,54.28
2022-10-29T16:43:00.932Z,67.50
2022-10-29T16:45:33.177Z,71.63
2022-10-29T16:48:00.567Z,62.30
2022-10-29T16:50:30.676Z,62.15
2022-10-29T16:52:59.174Z,66.18
2022-10-29T16:55:27.195Z,64.05
2022-10-29T16:57:54.398Z,67.68
2022-10-29T17:00:22.441Z,64.03
2022-10-29T17:02:49.754Z,70.38
2022-10-29T17:05:17.200Z,64.97
2022-10-29T17:07:44.470Z,63.53
2022-10-29T17:10:11.581Z,67.05
2022-10-29T17:12:38.561Z,65.60
2022-10-29T17:15:06.074Z,67.80
2022-10-29T17:17:33.066Z,66.20
2022-10-29T17:20:00.130Z,68.43
2022-10-29T17:22:27.230Z,68.63
2022-10-29T17:24:54.255Z,71.65
2022-10-29T17:27:21.300Z,66.57
2022-10-29T17:29:48.384Z,70.03
2022-10-29T17:32:15.783Z,69.25
2022-10-29T17:34:42.816Z,69.97
2022-10-29T17:37:09.890Z,73.72
2022-10-29T17:39:36.975Z,84.82
2022-10-29T17:42:04.625Z,86.10
2022-10-29T17:44:34.010Z,77.00
2022-10-29T17:47:01.337Z,80.47
2022-10-29T17:49:28.537Z,76.47
2022-10-29T17:51:55.509Z,75.07
2022-10-29T17:54:22.635Z,76.28
2022-10-29T17:56:50.868Z,76.18
2022-10-29T17:59:17.867Z,76.10
2022-10-29T18:01:45.506Z,76.72
2022-10-29T18:04:12.635Z,77.80
2022-10-29T18:06:39.719Z,77.53
2022-10-29T18:09:06.958Z,72.63
2022-10-29T18:11:33.997Z,71.50
2022-10-29T18:14:00.978Z,70.78
2022-10-29T18:16:29.630Z,70.70
2022-10-29T18:19:03.233Z,66.60
2022-10-29T18:21:31.452Z,71.88
2022-10-29T18:23:58.829Z,74.05
2022-10-29T18:26:32.797Z,72.47
2022-10-29T18:29:08.739Z,72.00
2022-10-29T18:31:38.175Z,74.68
2022-10-29T18:34:07.816Z,71.40
2022-10-29T18:36:39.048Z,74.00
2022-10-29T18:39:06.721Z,74.03
2022-10-29T18:41:34.902Z,77.53
2022-10-29T18:44:02.373Z,89.70
2022-10-29T18:46:29.388Z,94.40
2022-10-29T18:48:57.208Z,95.43
2022-10-29T18:51:26.870Z,86.10
2022-10-29T18:53:55.758Z,83.07
2022-10-29T18:56:23.587Z,86.57
2022-10-29T18:58:51.001Z,86.70
2022-10-29T19:01:20.877Z,86.05
2022-10-29T19:03:53.184Z,85.95
2022-10-29T19:06:21.639Z,85.47
2022-10-29T19:08:48.945Z,83.13
2022-10-29T19:11:18.827Z,83.72
2022-10-29T19:13:53.973Z,83.03
2022-10-29T19:16:21.516Z,83.47
2022-10-29T19:18:49.053Z,83.63
2022-10-29T19:21:21.207Z,85.47
2022-10-29T19:23:48.390Z,83.25
2022-10-29T19:26:18.386Z,90.95
2022-10-29T19:28:46.953Z,87.38
2022-10-29T19:31:19.701Z,84.05
2022-10-29T19:33:51.695Z,84.43
2022-10-29T19:36:19.423Z,82.03
2022-10-29T19:38:47.299Z,83.53
2022-10-29T19:41:15.595Z,84.88
2022-10-29T19:43:42.944Z,90.47
2022-10-29T19:46:12.691Z,90.13
2022-10-29T19:48:40.326Z,90.57
2022-10-29T19:51:08.429Z,85.97
2022-10-29T19:53:38.257Z,87.63
2022-10-29T19:56:06.658Z,95.32
2022-10-29T19:58:33.665Z,97.40
2022-10-29T20:01:10.877Z,103.10
2022-10-29T20:03:38.020Z,99.90
2022-10-29T20:06:06.651Z,98.07
2022-10-29T20:08:33.747Z,102.47
2022-10-29T20:11:01.070Z,100.95
2022-10-29T20:13:28.508Z,102.07
2022-10-29T20:15:55.810Z,100.13
2022-10-29T20:18:23.060Z,96.20
2022-10-29T20:20:57.773Z,96.47
2022-10-29T20:23:28.108Z,97.03
2022-10-29T20:25:55.136Z,94.38
2022-10-29T20:28:22.260Z,95.20
2022-10-29T20:30:49.676Z,82.95
2022-10-29T20:33:17.091Z,72.88
2022-10-29T20:35:44.232Z,79.60
2022-10-29T20:38:12.273Z,70.30
2022-10-29T20:40:40.048Z,67.13
2022-10-29T20:43:07.079Z,58.45
2022-10-29T20:45:34.091Z,52.15
2022-10-29T20:48:03.224Z,49.70
2022-10-29T20:50:30.278Z,50.78
2022-10-29T20:52:57.975Z,47.10
2022-10-29T20:55:25.059Z,46.50
2022-10-29T20:57:52.040Z,47.45
2022-10-29T21:00:19.154Z,55.63
2022-10-29T21:02:46.274Z,55.45
2022-10-29T21:05:23.884Z,56.03
2022-10-29T21:07:59.571Z,64.45
2022-10-29T21:10:27.011Z,90.60
2022-10-29T21:12:54.179Z,89.47
2022-10-29T21:15:21.374Z,83.55
2022-10-29T21:17:58.860Z,77.10
2022-10-29T21:20:26.078Z,68.55
2022-10-29T21:23:23.966Z,78.15
2022-10-29T21:25:54.276Z,80.47
2022-10-29T21:28:21.281Z,86.90
2022-10-29T21:30:48.265Z,71.55
2022-10-29T21:33:15.275Z,68.75
2022-10-29T21:35:42.254Z,74.03
2022-10-29T21:38:09.256Z,71.50
2022-10-29T21:40:36.255Z,69.63
2022-10-29T21:43:03.331Z,59.50
2022-10-29T21:45:30.297Z,60.47
2022-10-29T21:47:57.304Z,66.80
2022-10-29T21:50:24.340Z,69.45
2022-10-29T21:52:51.349Z,70.55
2022-10-29T21:55:18.450Z,69.88
2022-10-29T21:57:45.450Z,68.20
2022-10-29T22:00:14.741Z,72.50
2022-10-29T22:02:41.768Z,71.88
2022-10-29T22:05:08.910Z,67.38
2022-10-29T22:07:36.522Z,72.70
2022-10-29T22:10:04.329Z,79.85
2022-10-29T22:12:31.541Z,70.88
2022-10-29T22:14:58.501Z,70.45
2022-10-29T22:17:28.920Z,65.13
2022-10-29T22:19:56.342Z,63.42
2022-10-29T22:22:24.026Z,63.53
2022-10-29T22:24:50.976Z,65.35
2022-10-29T22:27:18.043Z,68.43
2022-10-29T22:29:44.963Z,68.10
2022-10-29T22:32:11.960Z,64.93
2022-10-29T22:34:38.919Z,66.80
2022-10-29T22:37:05.894Z,65.78
2022-10-29T22:39:32.986Z,68.03
2022-10-29T22:41:59.997Z,55.00
2022-10-29T22:44:27.007Z,53.70
2022-10-29T22:46:53.975Z,57.95
2022-10-29T22:49:20.953Z,64.80
2022-10-29T22:51:47.941Z,67.45
2022-10-29T22:54:15.012Z,69.13
2022-10-29T22:56:42.075Z,67.60
2022-10-29T22:59:09.166Z,75.97
2022-10-29T23:01:40.385Z,74.22
2022-10-29T23:04:11.141Z,69.30
2022-10-29T23:06:38.176Z,64.32
2022-10-29T23:09:05.269Z,73.10
2022-10-29T23:11:35.079Z,68.28
2022-10-29T23:14:03.020Z,68.13
2022-10-29T23:16:32.106Z,65.68
2022-10-29T23:19:02.139Z,62.53
2022-10-29T23:21:30.083Z,59.33
2022-10-29T23:23:57.979Z,58.33
2022-10-29T23:26:25.883Z,56.55
2022-10-29T23:28:53.277Z,58.05
2022-10-29T23:31:25.208Z,58.65
2022-10-29T23:33:54.333Z,58.20
2022-10-29T23:36:23.073Z,58.95
2022-10-29T23:38:58.161Z,60.50
2022-10-29T23:41:26.191Z,58.38
2022-10-29T23:43:53.198Z,58.72
2022-10-29T23:46:20.480Z,58.28
2022-10-29T23:48:47.637Z,59.65
2022-10-29T23:51:15.123Z,56.40
2022-10-29T23:53:42.170Z,58.97
2022-10-29T23:56:09.151Z,55.47
2022-10-29T23:58:36.164Z,54.95
